Time;durP1;ratioP1;P1;durP2;ratioP2;P2;SDS_P1;SDS_P2;PMS_P1;PMS_P2;Temp;Humidity;BMP_temperature;BMP_pressure;BME280_temperature;BME280_humidity;BME280_pressure;Samples;Min_cycle;Max_cycle;Signal;HPM_P1;HPM_P2
2021/01/28 00:00:51;;;;;;;9.60;8.20;;;2.30;99.90;;;0.13;100.00;99739.94;4984413;28;101159;-62
2021/01/28 00:03:19;;;;;;;8.40;7.40;;;2.30;99.90;;;0.14;100.00;99744.25;4984414;28;99963;-61
2021/01/28 00:05:46;;;;;;;9.80;8.83;;;2.20;99.90;;;0.15;100.00;99738.06;4984371;28;100036;-61
2021/01/28 00:08:14;;;;;;;9.20;8.23;;;2.20;99.90;;;0.13;100.00;99737.31;4983852;28;100832;-61
2021/01/28 00:10:41;;;;;;;10.60;9.50;;;2.30;99.90;;;0.10;100.00;99739.34;4983856;27;101319;-60
2021/01/28 00:13:08;;;;;;;9.27;7.77;;;2.30;99.90;;;0.14;100.00;99727.63;4983832;28;99947;-60
2021/01/28 00:15:36;;;;;;;9.77;8.13;;;2.30;99.90;;;0.12;100.00;99733.03;4984602;28;100028;-61
2021/01/28 00:18:04;;;;;;;11.10;8.77;;;2.10;99.90;;;0.12;100.00;99721.66;4984152;28;101402;-61
2021/01/28 00:20:35;;;;;;;12.03;10.37;;;2.20;99.90;;;0.09;100.00;99719.25;4984041;28;101160;-61
2021/01/28 00:23:02;;;;;;;11.67;9.17;;;2.20;99.90;;;0.12;100.00;99701.47;4983722;28;100190;-61
2021/01/28 00:25:28;;;;;;;11.17;9.57;;;2.30;99.90;;;0.11;100.00;99698.94;4984313;28;100285;-62
2021/01/28 00:27:55;;;;;;;13.60;9.73;;;2.20;99.90;;;0.08;100.00;99692.09;4983766;28;100933;-61
2021/01/28 00:30:25;;;;;;;10.93;8.63;;;2.20;99.90;;;0.11;100.00;99701.56;4983459;28;101084;-62
2021/01/28 00:32:52;;;;;;;11.53;9.57;;;2.20;99.90;;;0.11;100.00;99698.94;4983150;28;100096;-60
2021/01/28 00:35:26;;;;;;;11.30;10.13;;;2.10;99.90;;;0.12;100.00;99690.94;4983614;28;100411;-60
2021/01/28 00:37:53;;;;;;;9.93;8.90;;;2.20;99.90;;;0.14;100.00;99677.66;4983281;28;101827;-60
2021/01/28 00:40:20;;;;;;;9.90;8.87;;;2.10;99.90;;;0.15;100.00;99682.81;4984359;28;100661;-61
2021/01/28 00:42:48;;;;;;;11.30;9.40;;;2.10;99.90;;;0.15;100.00;99681.97;4983936;28;99956;-60
2021/01/28 00:45:17;;;;;;;11.27;9.43;;;2.10;99.90;;;0.14;100.00;99677.66;4984014;28;100062;-60
2021/01/28 00:47:43;;;;;;;12.00;10.43;;;2.10;99.90;;;0.19;100.00;99686.91;4983930;28;101793;-61
2021/01/28 00:50:11;;;;;;;12.33;9.93;;;2.30;99.90;;;0.20;100.00;99693.03;4984323;28;100472;-61
2021/01/28 00:52:39;;;;;;;10.27;9.07;;;2.30;99.90;;;0.24;100.00;99681.34;4964606;28;100527;-61
2021/01/28 00:55:16;;;;;;;10.03;8.97;;;2.30;99.90;;;0.23;100.00;99683.13;4999809;27;100217;-61
2021/01/28 00:57:46;;;;;;;10.97;8.67;;;2.20;99.90;;;0.24;100.00;99666.41;4980771;28;102556;-61
2021/01/28 01:00:17;;;;;;;9.57;8.57;;;2.40;99.90;;;0.27;100.00;99679.31;4981643;28;101196;-59
2021/01/28 01:02:46;;;;;;;10.27;9.27;;;2.30;99.90;;;0.28;100.00;99673.09;4983810;28;100168;-60
2021/01/28 01:05:15;;;;;;;11.20;9.23;;;2.30;99.90;;;0.28;100.00;99649.44;4983211;27;100118;-62
2021/01/28 01:07:42;;;;;;;10.77;9.67;;;2.40;99.90;;;0.27;100.00;99642.47;5000529;27;102030;-60
2021/01/28 01:10:14;;;;;;;11.70;9.97;;;2.40;99.90;;;0.30;100.00;99647.53;4985954;28;101880;-59
2021/01/28 01:12:42;;;;;;;10.47;9.40;;;2.40;99.90;;;0.33;100.00;99654.38;4980992;28;100659;-61
2021/01/28 01:15:11;;;;;;;10.63;8.93;;;2.50;99.90;;;0.39;100.00;99645.19;4981815;28;100055;-61
2021/01/28 01:17:37;;;;;;;9.83;8.80;;;2.50;99.90;;;0.42;100.00;99640.56;4983378;28;101663;-61
2021/01/28 01:20:09;;;;;;;9.93;8.93;;;2.50;99.90;;;0.44;100.00;99638.66;4981130;28;101115;-61
2021/01/28 01:22:42;;;;;;;10.17;8.77;;;2.50;99.90;;;0.47;100.00;99634.97;4981078;28;100239;-62
2021/01/28 01:25:12;;;;;;;9.93;8.93;;;2.70;99.90;;;0.49;100.00;99635.72;4980795;28;100653;-61
2021/01/28 01:27:38;;;;;;;11.20;9.13;;;2.50;99.90;;;0.50;100.00;99630.31;4964204;28;102766;-61
2021/01/28 01:30:25;;;;;;;10.80;9.40;;;2.60;99.90;;;0.53;100.00;99626.63;4964313;28;100389;-61
2021/01/28 01:32:52;;;;;;;9.47;8.50;;;2.00;99.90;;;0.54;100.00;99628.31;4982990;28;100113;-60
2021/01/28 01:35:45;;;;;;;11.83;9.20;;;2.70;99.90;;;0.57;100.00;99625.44;4970696;28;100000;-60
2021/01/28 01:38:12;;;;;;;11.67;9.37;;;2.50;99.90;;;0.57;100.00;99630.72;4982561;28;101468;-61
2021/01/28 01:40:46;;;;;;;10.90;9.67;;;2.60;99.90;;;0.56;100.00;99627.25;4981108;28;100854;-61
2021/01/28 01:43:15;;;;;;;11.13;9.57;;;2.60;99.90;;;0.56;100.00;99623.78;4982818;28;100210;-61
2021/01/28 01:45:45;;;;;;;12.97;9.70;;;2.80;99.90;;;0.54;100.00;99623.03;4980314;28;99998;-60
2021/01/28 01:48:19;;;;;;;12.47;10.33;;;2.70;99.90;;;0.50;100.00;99617.13;4982229;28;101264;-61
2021/01/28 01:50:53;;;;;;;12.27;10.00;;;2.70;99.90;;;0.47;100.00;99609.50;4980353;28;103141;-62
2021/01/28 01:53:25;;;;;;;13.43;11.10;;;2.60;99.90;;;0.41;100.00;99612.56;4982441;28;100018;-61
2021/01/28 01:55:59;;;;;;;10.87;8.83;;;2.50;99.90;;;0.38;100.00;99609.28;4982482;28;100197;-62
2021/01/28 01:58:46;;;;;;;13.13;10.50;;;2.60;99.90;;;0.34;100.00;99622.69;4982736;28;100909;-61
2021/01/28 02:01:40;;;;;;;12.90;10.87;;;2.50;99.90;;;0.27;100.00;99620.59;4981218;28;100182;-60
2021/01/28 02:04:36;;;;;;;13.47;11.27;;;2.40;99.90;;;0.23;100.00;99616.50;4925520;28;100358;-59
2021/01/28 02:07:29;;;;;;;14.13;11.07;;;2.40;99.90;;;0.21;100.00;99616.63;4982456;28;100083;-61
2021/01/28 02:10:17;;;;;;;14.23;11.43;;;2.30;99.90;;;0.19;100.00;99607.16;4979610;28;100256;-60
2021/01/28 02:13:04;;;;;;;13.80;12.10;;;2.20;99.90;;;0.14;100.00;99606.63;4979064;28;100409;-59
2021/01/28 02:15:35;;;;;;;14.40;11.77;;;2.10;99.90;;;0.12;100.00;99609.38;4996656;27;100539;-60
2021/01/28 02:18:04;;;;;;;13.83;11.57;;;2.30;99.90;;;0.14;100.00;99596.94;4980078;28;100286;-59
2021/01/28 02:21:22;;;;;;;20.63;13.87;;;2.20;99.90;;;0.16;100.00;99592.41;4982203;27;100477;-59
2021/01/28 02:24:30;;;;;;;15.60;11.73;;;2.20;99.90;;;0.15;100.00;99576.75;4980653;28;102638;-59
2021/01/28 02:26:58;;;;;;;15.20;10.17;;;2.20;99.90;;;0.14;100.00;99575.06;4980472;28;100247;-58
2021/01/28 02:29:51;;;;;;;14.97;10.97;;;2.20;99.90;;;0.13;100.00;99573.38;4981902;28;100196;-59
2021/01/28 02:32:18;;;;;;;12.13;9.57;;;2.10;99.90;;;0.15;100.00;99566.22;4980335;28;103191;-58
2021/01/28 02:34:58;;;;;;;14.87;11.40;;;2.30;99.90;;;0.18;100.00;99564.22;4980342;28;102867;-60
2021/01/28 02:37:24;;;;;;;14.80;11.43;;;2.10;99.90;;;0.15;100.00;99553.91;4980763;28;100277;-59
2021/01/28 02:39:58;;;;;;;15.67;12.00;;;2.20;99.90;;;0.17;100.00;99554.63;4980289;28;100058;-60
2021/01/28 02:42:45;;;;;;;16.13;12.83;;;2.20;99.90;;;0.16;100.00;99558.22;4981834;28;100537;-58
2021/01/28 02:45:19;;;;;;;15.03;12.63;;;2.20;99.90;;;0.18;100.00;99569.47;4979076;28;102456;-60
2021/01/28 02:48:09;;;;;;;14.73;11.60;;;2.20;99.90;;;0.21;100.00;99555.25;4978393;28;100176;-60
2021/01/28 02:50:41;;;;;;;13.90;10.87;;;2.20;99.90;;;0.25;100.00;99561.97;4979706;28;100218;-60
2021/01/28 02:53:08;;;;;;;19.07;12.73;;;2.20;99.90;;;0.42;100.00;99568.66;4979108;28;102412;-59
2021/01/28 02:55:39;;;;;;;49.97;15.10;;;2.40;99.90;;;0.35;100.00;99569.09;4979123;28;102768;-57
2021/01/28 02:58:06;;;;;;;15.47;11.53;;;2.20;99.90;;;0.32;100.00;99566.69;4979167;28;100168;-59
2021/01/28 03:00:45;;;;;;;13.30;9.97;;;2.30;99.90;;;0.32;100.00;99569.31;4979972;28;100119;-58
2021/01/28 03:03:13;;;;;;;15.07;11.60;;;2.30;99.90;;;0.33;100.00;99575.44;4979888;28;102927;-58
2021/01/28 03:05:47;;;;;;;15.37;10.50;;;2.40;99.90;;;0.37;100.00;99568.16;4979102;28;102587;-59
2021/01/28 03:08:14;;;;;;;12.87;10.10;;;2.30;99.90;;;0.35;100.00;99563.84;4980074;28;100368;-60
2021/01/28 03:10:45;;;;;;;16.13;12.60;;;2.20;99.90;;;0.36;100.00;99559.44;4976373;28;100518;-59
2021/01/28 03:13:23;;;;;;;14.70;11.67;;;2.40;99.90;;;0.36;100.00;99559.44;4976850;28;102741;-59
2021/01/28 03:15:56;;;;;;;12.90;10.00;;;2.40;99.90;;;0.37;100.00;99553.22;4975984;28;102987;-58
2021/01/28 03:18:23;;;;;;;13.23;10.27;;;3.30;99.90;;;0.42;100.00;99551.06;4961755;28;100220;-59
2021/01/28 03:20:51;;;;;;;13.20;9.93;;;2.50;99.90;;;0.43;100.00;99550.13;4975698;28;100307;-58
2021/01/28 03:23:43;;;;;;;12.87;10.60;;;2.50;99.90;;;0.45;100.00;99548.22;4975127;28;102267;-61
2021/01/28 03:26:17;;;;;;;14.43;11.13;;;2.50;99.90;;;0.44;100.00;99548.31;4976037;28;102005;-62
2021/01/28 03:28:46;;;;;;;13.43;10.57;;;2.40;99.90;;;0.45;100.00;99544.75;4978505;27;100164;-61
2021/01/28 03:31:19;;;;;;;11.90;10.10;;;2.50;99.90;;;0.49;100.00;99538.31;4980176;28;100769;-60
2021/01/28 03:33:46;;;;;;;17.50;11.03;;;2.50;99.90;;;0.53;100.00;99543.22;4979068;28;101885;-61
2021/01/28 03:36:12;;;;;;;13.23;10.77;;;2.50;99.90;;;0.51;100.00;99547.75;4978880;28;102766;-58
2021/01/28 03:38:39;;;;;;;12.20;10.10;;;2.50;99.90;;;0.51;100.00;99544.28;4980199;28;100163;-60
2021/01/28 03:41:05;;;;;;;12.47;10.10;;;2.50;99.90;;;0.53;100.00;99539.75;4979248;28;100265;-61
2021/01/28 03:43:32;;;;;;;12.90;9.67;;;2.60;99.90;;;0.55;100.00;99532.59;4965317;28;101502;-61
2021/01/28 03:45:59;;;;;;;14.23;11.33;;;2.60;99.90;;;0.53;100.00;99535.31;4979690;28;102836;-60
2021/01/28 03:48:30;;;;;;;13.40;10.50;;;2.50;99.90;;;0.55;100.00;99524.69;4979406;28;100471;-61
2021/01/28 03:51:28;;;;;;;13.70;9.60;;;2.50;99.90;;;0.55;100.00;99511.53;4978910;28;100565;-61
2021/01/28 03:54:15;;;;;;;13.07;9.93;;;2.50;99.90;;;0.56;100.00;99506.16;4964950;28;101412;-62
2021/01/28 03:56:47;;;;;;;12.97;9.90;;;2.50;99.90;;;0.61;100.00;99500.56;4964738;28;100156;-62
2021/01/28 03:59:13;;;;;;;14.43;10.80;;;2.50;99.90;;;0.60;100.00;99498.88;4978785;28;100077;-62
2021/01/28 04:01:59;;;;;;;12.10;9.30;;;2.60;99.90;;;0.68;100.00;99488.59;4964552;28;100204;-60
2021/01/28 04:04:46;;;;;;;14.10;11.20;;;2.50;99.90;;;0.66;100.00;99483.44;4941839;28;100682;-61
2021/01/28 04:07:31;;;;;;;13.10;10.27;;;2.50;99.90;;;0.71;100.00;99489.22;4961968;28;100106;-62
2021/01/28 04:09:58;;;;;;;21.20;11.10;;;2.60;99.90;;;0.71;100.00;99488.38;4982283;28;100194;-60
2021/01/28 04:12:28;;;;;;;12.13;10.27;;;2.50;99.90;;;0.63;100.00;99482.81;4983945;28;100294;-60
2021/01/28 04:14:57;;;;;;;17.23;10.70;;;2.50;99.90;;;0.77;100.00;99471.25;4961238;28;100182;-59
2021/01/28 04:17:26;;;;;;;37.77;12.63;;;2.70;99.90;;;0.78;100.00;99473.78;4960849;28;102920;-61
2021/01/28 04:20:03;;;;;;;13.57;10.83;;;2.60;99.90;;;0.67;100.00;99463.22;4983672;28;100163;-62
2021/01/28 04:22:29;;;;;;;11.73;8.60;;;2.70;99.90;;;0.67;100.00;99463.22;4984233;28;100017;-60
2021/01/28 04:24:59;;;;;;;12.90;9.40;;;2.70;99.90;;;0.75;100.00;99457.38;4981208;28;102814;-61
2021/01/28 04:27:27;;;;;;;11.00;8.53;;;2.70;99.90;;;0.81;100.00;99449.00;4998938;27;102696;-59
2021/01/28 04:30:07;;;;;;;15.87;11.03;;;2.80;99.90;;;0.71;100.00;99448.88;4982065;28;100132;-61
2021/01/28 04:32:47;;;;;;;14.17;9.97;;;2.80;99.90;;;0.69;100.00;99446.34;4981921;28;100352;-61
2021/01/28 04:35:37;;;;;;;11.87;10.27;;;2.70;99.90;;;0.62;100.00;99433.75;4982492;28;101575;-60
2021/01/28 04:38:05;;;;;;;11.43;9.60;;;2.70;99.90;;;0.63;100.00;99436.28;4998866;27;103152;-60
2021/01/28 04:40:38;;;;;;;11.00;8.57;;;2.70;99.90;;;0.68;100.00;99439.41;4997635;27;100275;-61
2021/01/28 04:43:21;;;;;;;11.83;9.00;;;2.70;99.90;;;0.71;100.00;99438.34;4984338;28;100298;-59
2021/01/28 04:45:56;;;;;;;56.23;13.23;;;2.70;99.90;;;0.76;100.00;99433.56;4965958;28;100271;-61
2021/01/28 04:48:24;;;;;;;17.80;9.53;;;2.70;99.90;;;0.82;100.00;99435.72;4984195;28;101639;-62
2021/01/28 04:51:12;;;;;;;10.20;7.93;;;2.80;99.90;;;0.80;100.00;99418.38;4981480;28;100336;-60
2021/01/28 04:53:51;;;;;;;12.00;8.77;;;2.70;99.90;;;0.76;100.00;99424.81;4981893;28;100590;-62
2021/01/28 04:56:41;;;;;;;12.30;8.67;;;2.80;99.90;;;0.77;100.00;99427.34;4980920;28;100999;-61
2021/01/28 04:59:30;;;;;;;45.53;10.80;;;2.80;99.90;;;0.86;100.00;99434.56;4981000;28;102001;-60
2021/01/28 05:01:59;;;;;;;22.03;9.43;;;2.80;99.90;;;0.98;100.00;99430.13;4981115;28;100112;-61
2021/01/28 05:04:52;;;;;;;10.30;8.93;;;2.80;99.90;;;0.88;100.00;99435.25;4985356;28;100025;-60
2021/01/28 05:07:32;;;;;;;11.00;8.37;;;2.90;99.90;;;0.85;100.00;99424.97;4983751;28;102704;-61
2021/01/28 05:10:36;;;;;;;10.40;8.53;;;2.90;99.90;;;0.89;100.00;99429.03;4980992;28;101430;-60
2021/01/28 05:13:31;;;;;;;14.67;9.07;;;2.90;99.90;;;0.95;100.00;99428.56;4980721;28;100327;-60
2021/01/28 05:16:25;;;;;;;16.67;10.20;;;2.90;99.90;;;1.04;100.00;99427.00;4963860;28;100758;-60
2021/01/28 05:19:25;;;;;;;11.50;9.00;;;1.80;99.90;;;0.94;100.00;99424.25;4963569;28;100252;-59
2021/01/28 05:22:21;;;;;;;11.03;8.37;;;2.90;99.90;;;0.93;100.00;99413.84;4981295;28;100548;-60
2021/01/28 05:25:00;;;;;;;10.50;8.37;;;2.90;99.90;;;0.95;100.00;99411.94;4983169;28;101328;-60
2021/01/28 05:27:34;;;;;;;10.43;8.43;;;3.00;99.90;;;0.95;100.00;99410.13;4981206;28;100307;-60
2021/01/28 05:30:07;;;;;;;82.53;15.63;;;3.00;99.90;;;1.01;100.00;99404.38;4981067;28;103425;-60
2021/01/28 05:32:40;;;;;;;11.03;8.47;;;2.90;99.90;;;1.05;100.00;99405.81;4980774;28;102710;-60
2021/01/28 05:35:41;;;;;;;11.43;8.37;;;2.80;99.90;;;1.04;100.00;99409.41;4981029;28;100400;-61
2021/01/28 05:38:29;;;;;;;10.70;8.23;;;2.80;99.90;;;1.02;100.00;99405.22;4981563;28;100200;-60
2021/01/28 05:44:19;;;;;;;11.73;8.97;;;3.00;99.90;;;1.01;100.00;99396.47;4980351;28;103073;-60
2021/01/28 05:47:04;;;;;;;29.00;11.33;;;3.10;99.90;;;1.11;100.00;99391.34;4979949;28;100085;-62
2021/01/28 05:49:51;;;;;;;9.83;7.97;;;3.90;99.90;;;1.12;100.00;99390.34;4982289;28;100393;-62
2021/01/28 05:52:27;;;;;;;11.13;8.40;;;3.10;99.90;;;1.12;100.00;99392.16;4997863;27;102907;-61
2021/01/28 05:55:10;;;;;;;323.30;35.87;;;3.00;99.90;;;1.18;100.00;99378.50;4980608;28;102236;-60
2021/01/28 05:57:58;;;;;;;18.23;9.20;;;3.00;99.90;;;1.21;100.00;99388.81;4996978;27;100298;-60
2021/01/28 06:00:39;;;;;;;12.90;9.50;;;3.00;99.90;;;1.21;100.00;99384.38;4960093;28;100316;-60
2021/01/28 06:03:49;;;;;;;17.70;9.00;;;3.10;99.90;;;1.31;100.00;99382.69;4962614;28;100755;-60
2021/01/28 06:07:26;;;;;;;11.10;8.50;;;3.30;99.90;;;1.17;100.00;99382.09;4962019;28;100601;-60
2021/01/28 06:10:45;;;;;;;12.27;9.07;;;3.20;99.90;;;1.13;100.00;99384.13;4979808;28;100385;-61
2021/01/28 06:14:34;;;;;;;13.73;10.23;;;3.20;99.90;;;1.13;100.00;99381.50;4970311;28;100520;-62
2021/01/28 06:17:44;;;;;;;13.50;9.77;;;3.10;99.90;;;1.15;100.00;99379.59;4975872;28;100646;-62
2021/01/28 06:20:50;;;;;;;12.93;8.80;;;3.00;99.90;;;1.17;100.00;99384.75;4980257;28;102145;-64
2021/01/28 06:23:58;;;;;;;121.47;19.73;;;3.10;99.90;;;1.20;100.00;99381.88;4982464;28;100196;-62
2021/01/28 06:26:38;;;;;;;14.97;9.43;;;4.00;99.90;;;1.27;100.00;99383.06;4944557;28;100151;-62
2021/01/28 06:29:50;;;;;;;13.83;10.70;;;3.10;99.90;;;1.23;100.00;99385.09;4963266;28;102918;-62
2021/01/28 06:33:15;;;;;;;15.13;10.07;;;3.10;99.90;;;1.21;100.00;99373.84;4980112;28;101689;-61
2021/01/28 06:36:26;;;;;;;13.53;10.20;;;3.20;99.90;;;1.23;100.00;99373.72;4980327;28;100213;-62
2021/01/28 06:39:22;;;;;;;14.73;9.33;;;3.70;99.90;;;1.24;100.00;99364.84;4979275;28;100561;-62
2021/01/28 06:42:23;;;;;;;13.70;9.97;;;3.10;99.90;;;1.26;100.00;99366.41;4954331;28;100658;-62
2021/01/28 06:45:11;;;;;;;17.73;10.90;;;3.20;99.90;;;1.32;100.00;99365.09;4980380;28;103228;-63
2021/01/28 06:48:09;;;;;;;24.27;11.87;;;3.20;99.90;;;1.40;100.00;99366.13;4978057;28;100372;-62
2021/01/28 06:50:52;;;;;;;12.13;9.50;;;3.20;99.90;;;1.29;100.00;99366.16;4981343;28;100399;-62
2021/01/28 06:53:25;;;;;;;13.87;10.27;;;3.20;99.90;;;1.27;100.00;99369.88;4966197;28;100222;-63
2021/01/28 06:56:33;;;;;;;12.70;9.77;;;3.20;99.90;;;1.28;100.00;99364.47;4983589;28;100172;-61
2021/01/28 06:59:25;;;;;;;14.43;9.97;;;3.20;99.90;;;1.28;100.00;99355.75;4958939;28;100344;-62
2021/01/28 07:02:07;;;;;;;13.30;9.63;;;3.30;99.90;;;1.29;100.00;99358.25;4960880;28;100620;-63
2021/01/28 07:05:29;;;;;;;90.20;17.13;;;3.40;99.90;;;1.42;100.00;99360.75;4959056;28;101044;-61
2021/01/28 07:08:02;;;;;;;11.23;8.17;;;3.20;99.90;;;1.38;100.00;99357.50;4976633;28;102747;-61
2021/01/28 07:10:55;;;;;;;10.83;8.47;;;3.30;99.90;;;1.39;100.00;99355.72;4985740;28;100288;-60
2021/01/28 07:13:59;;;;;;;11.37;7.80;;;3.30;99.90;;;1.41;100.00;99359.91;4988344;28;100535;-62
2021/01/28 07:16:38;;;;;;;10.27;7.43;;;3.40;99.90;;;1.44;100.00;99351.75;5002474;27;102695;-60
2021/01/28 07:19:12;;;;;;;9.67;8.10;;;3.30;99.90;;;1.47;100.00;99350.69;4988797;28;100701;-60
2021/01/28 07:21:45;;;;;;;9.50;7.40;;;3.30;99.90;;;1.55;100.00;99342.16;4988279;28;100240;-60
2021/01/28 07:24:32;;;;;;;9.63;7.43;;;3.30;99.90;;;1.59;100.00;99335.69;4985884;28;100188;-59
2021/01/28 07:27:02;;;;;;;10.63;7.63;;;3.40;99.90;;;1.54;100.00;99336.03;4988055;28;100294;-58
2021/01/28 07:29:55;;;;;;;14.13;7.60;;;3.40;99.90;;;1.58;100.00;99332.19;4988303;28;101339;-59
2021/01/28 07:32:53;;;;;;;13.20;7.37;;;3.50;99.90;;;1.64;100.00;99336.97;4988142;28;100016;-59
2021/01/28 07:35:50;;;;;;;11.30;7.90;;;3.50;99.90;;;1.66;100.00;99331.56;4965211;28;100246;-60
2021/01/28 07:38:54;;;;;;;10.53;7.50;;;3.60;99.90;;;1.53;100.00;99320.34;4986121;28;100135;-58
2021/01/28 07:41:54;;;;;;;12.03;8.53;;;3.60;99.90;;;1.50;100.00;99312.66;4987487;28;100218;-60
2021/01/28 07:44:55;;;;;;;9.77;7.13;;;3.50;99.90;;;1.51;100.00;99323.09;4987355;28;100096;-60
2021/01/28 07:47:57;;;;;;;17.10;7.47;;;3.70;99.90;;;1.52;100.00;99310.75;4987765;28;100263;-59
2021/01/28 07:50:41;;;;;;;11.43;8.10;;;3.50;99.90;;;1.52;100.00;99308.13;4985513;28;101993;-57
2021/01/28 07:53:48;;;;;;;17.83;7.83;;;3.50;99.90;;;1.53;100.00;99300.09;4988757;28;100054;-59
2021/01/28 07:56:50;;;;;;;11.37;7.40;;;3.60;99.90;;;1.49;100.00;99285.47;4987678;28;100079;-61
2021/01/28 07:59:35;;;;;;;11.00;7.37;;;3.50;99.90;;;1.61;100.00;99286.25;4987709;28;100026;-59
2021/01/28 08:02:22;;;;;;;83.77;13.23;;;3.50;99.90;;;1.75;100.00;99286.81;4987002;28;101544;-61
2021/01/28 08:04:57;;;;;;;10.53;7.43;;;3.60;99.90;;;1.58;100.00;99281.25;4988119;28;101073;-59
2021/01/28 08:07:28;;;;;;;10.53;7.70;;;3.60;99.90;;;1.53;100.00;99284.28;4985800;28;100400;-58
2021/01/28 08:09:57;;;;;;;10.53;7.40;;;3.50;99.90;;;1.54;100.00;99280.66;4987391;27;100299;-59
2021/01/28 08:12:46;;;;;;;8.73;6.50;;;3.60;99.90;;;1.55;100.00;99277.06;4986790;28;101858;-59
2021/01/28 08:15:18;;;;;;;11.70;7.97;;;3.50;99.90;;;1.55;100.00;99270.97;4983516;27;100930;-60
2021/01/28 08:17:44;;;;;;;10.63;8.57;;;3.60;99.90;;;1.50;100.00;99266.06;4984593;28;100353;-61
2021/01/28 08:20:18;;;;;;;9.50;7.23;;;3.60;99.90;;;1.65;100.00;99282.41;4984407;28;99954;-60
2021/01/28 08:22:54;;;;;;;10.40;7.80;;;3.70;99.90;;;1.71;100.00;99282.78;4984270;28;101827;-61
2021/01/28 08:25:23;;;;;;;11.30;8.20;;;3.60;99.90;;;1.67;100.00;99276.06;4984194;28;100728;-60
2021/01/28 08:27:49;;;;;;;8.73;7.57;;;3.60;99.90;;;1.62;100.00;99274.75;4987027;28;100238;-61
2021/01/28 08:30:21;;;;;;;9.80;7.50;;;3.60;99.90;;;1.62;100.00;99272.97;4986798;28;100124;-58
2021/01/28 08:32:53;;;;;;;8.57;6.93;;;3.70;99.90;;;1.64;100.00;99272.84;4983951;28;100666;-60
2021/01/28 08:35:28;;;;;;;11.37;6.93;;;3.80;99.90;;;1.68;100.00;99263.72;4983501;28;101481;-60
2021/01/28 08:38:11;;;;;;;8.57;6.73;;;3.70;99.90;;;1.71;100.00;99272.22;4983480;28;101507;-60
2021/01/28 08:40:38;;;;;;;30.53;8.40;;;3.70;99.90;;;1.74;100.00;99269.31;4983684;28;100219;-60
2021/01/28 08:43:12;;;;;;;9.17;7.30;;;3.80;99.90;;;1.84;100.00;99273.84;4983770;28;101830;-62
2021/01/28 08:45:40;;;;;;;9.00;7.03;;;3.80;99.90;;;1.79;100.00;99276.84;4983276;28;101433;-59
2021/01/28 08:48:11;;;;;;;7.30;6.50;;;3.80;99.90;;;1.79;100.00;99268.94;4983433;28;100018;-59
2021/01/28 08:50:39;;;;;;;10.10;6.30;;;3.80;99.90;;;1.82;100.00;99268.69;4983477;28;99996;-60
2021/01/28 08:53:14;;;;;;;7.97;6.50;;;3.90;99.90;;;1.83;100.00;99269.53;4984224;28;100923;-60
2021/01/28 08:55:41;;;;;;;10.57;7.27;;;4.00;99.90;;;1.84;100.00;99263.28;4984371;28;100725;-60
2021/01/28 08:58:16;;;;;;;9.33;6.67;;;3.90;99.90;;;1.85;100.00;99254.41;4983753;28;101319;-60
2021/01/28 09:00:48;;;;;;;7.90;6.40;;;3.90;99.90;;;1.89;100.00;99253.19;4983097;28;100122;-61
2021/01/28 09:03:22;;;;;;;8.67;6.10;;;4.00;99.90;;;1.99;100.00;99246.16;4983181;28;100035;-60
2021/01/28 09:05:51;;;;;;;10.17;6.97;;;3.90;99.90;;;1.94;100.00;99249.19;4983274;28;100396;-60
2021/01/28 09:08:34;;;;;;;8.33;6.60;;;4.10;99.90;;;1.96;100.00;99257.00;4984612;28;100058;-58
2021/01/28 09:11:18;;;;;;;9.80;7.57;;;4.10;99.90;;;1.96;100.00;99263.09;4982836;28;100280;-61
2021/01/28 09:14:05;;;;;;;8.73;6.80;;;4.20;99.90;;;1.97;100.00;99258.66;4983559;28;101547;-61
2021/01/28 09:16:33;;;;;;;8.60;6.10;;;4.10;99.90;;;1.97;100.00;99256.03;4984455;28;100544;-60
2021/01/28 09:19:13;;;;;;;11.17;7.27;;;4.10;99.90;;;2.00;100.00;99261.84;4983911;28;99982;-59
2021/01/28 09:21:54;;;;;;;9.93;7.27;;;4.20;99.90;;;2.07;100.00;99255.13;4984503;28;100323;-61
2021/01/28 09:24:25;;;;;;;12.00;7.73;;;4.10;99.90;;;2.15;100.00;99259.72;4983489;28;101444;-60
2021/01/28 09:27:16;;;;;;;10.73;8.40;;;5.30;99.90;;;2.10;100.00;99254.84;4982332;27;101206;-61
2021/01/28 09:29:46;;;;;;;30.60;8.73;;;4.20;99.90;;;2.13;100.00;99264.31;4983034;28;100030;-60
2021/01/28 09:32:28;;;;;;;10.90;7.30;;;4.30;99.90;;;2.20;100.00;99246.16;4983479;28;100178;-61
2021/01/28 09:35:12;;;;;;;60.57;12.07;;;4.30;99.90;;;2.29;100.00;99251.50;4983368;28;100129;-61
2021/01/28 09:37:41;;;;;;;11.37;7.60;;;4.20;99.90;;;2.29;100.00;99253.28;4983079;28;101315;-60
2021/01/28 09:40:22;;;;;;;10.67;7.00;;;4.30;99.90;;;2.20;100.00;99254.91;4983211;28;100358;-60
2021/01/28 09:42:49;;;;;;;10.00;7.00;;;4.40;99.90;;;2.13;100.00;99243.19;4982645;28;100001;-60
2021/01/28 09:45:23;;;;;;;10.40;7.30;;;4.40;99.90;;;2.08;100.00;99233.03;4982657;28;101384;-61
2021/01/28 09:47:54;;;;;;;9.13;7.30;;;5.30;99.90;;;2.12;100.00;99237.06;4980998;28;102920;-60
2021/01/28 09:50:22;;;;;;;8.97;6.90;;;4.40;99.90;;;2.07;100.00;99230.53;4982424;28;100014;-61
2021/01/28 09:52:51;;;;;;;9.23;6.73;;;4.30;99.90;;;2.14;100.00;99229.03;4960836;28;99948;-60
2021/01/28 09:55:21;;;;;;;11.50;7.10;;;4.50;99.90;;;2.15;100.00;99231.53;4962037;28;100988;-60
2021/01/28 09:57:47;;;;;;;12.10;7.87;;;5.40;99.90;;;2.21;100.00;99229.38;4962986;28;100482;-61
2021/01/28 10:00:17;;;;;;;12.13;8.00;;;4.50;99.90;;;2.25;100.00;99231.59;4962660;28;100103;-61
2021/01/28 10:02:48;;;;;;;10.20;7.33;;;4.40;99.90;;;2.16;100.00;99225.31;4962466;28;99909;-61
2021/01/28 10:05:22;;;;;;;12.87;8.70;;;4.30;99.90;;;2.13;100.00;99222.09;4963086;28;100669;-61
2021/01/28 10:07:50;;;;;;;10.90;7.30;;;4.30;99.90;;;2.11;100.00;99216.94;4962536;28;100079;-60
2021/01/28 10:10:20;;;;;;;9.87;7.07;;;4.50;99.90;;;2.13;100.00;99211.53;4963325;28;100102;-60
2021/01/28 10:12:47;;;;;;;24.90;8.63;;;4.40;99.90;;;2.23;100.00;99207.13;4962970;28;100076;-61
2021/01/28 10:15:14;;;;;;;10.73;7.40;;;4.40;99.90;;;2.25;100.00;99205.19;4962990;28;101388;-61
2021/01/28 10:17:42;;;;;;;12.00;7.67;;;4.40;99.90;;;2.15;100.00;99202.50;4963559;28;100877;-59
2021/01/28 10:20:09;;;;;;;9.57;6.90;;;4.40;99.90;;;2.20;100.00;99198.66;4976028;28;100075;-60
2021/01/28 10:22:38;;;;;;;7.03;6.27;;;4.40;99.90;;;2.21;100.00;99195.06;4982768;28;100278;-60
2021/01/28 10:25:09;;;;;;;9.10;6.97;;;4.40;99.90;;;2.23;100.00;99187.81;4981715;28;101699;-62
2021/01/28 10:27:36;;;;;;;9.33;7.03;;;4.40;99.90;;;2.27;100.00;99186.59;4982139;28;100678;-59
2021/01/28 10:30:04;;;;;;;10.70;7.67;;;4.40;99.90;;;2.26;100.00;99182.28;4982394;28;100145;-60
2021/01/28 10:32:30;;;;;;;13.47;6.93;;;4.40;99.90;;;2.19;100.00;99182.00;4984295;28;100060;-61
2021/01/28 10:34:57;;;;;;;9.50;6.57;;;4.40;99.90;;;2.22;100.00;99180.91;4984905;28;100255;-60
2021/01/28 10:37:23;;;;;;;8.63;6.70;;;4.30;99.90;;;2.22;100.00;99170.34;4981888;28;100349;-61
2021/01/28 10:39:50;;;;;;;10.27;7.60;;;4.40;99.90;;;2.23;100.00;99162.25;4981533;28;99888;-60
2021/01/28 10:42:20;;;;;;;9.50;7.30;;;4.50;99.90;;;2.24;100.00;99166.56;4982574;28;99910;-60
2021/01/28 10:44:56;;;;;;;11.17;7.10;;;5.40;99.90;;;2.26;100.00;99167.28;4981036;28;100853;-61
2021/01/28 10:47:22;;;;;;;11.07;7.83;;;4.30;99.90;;;2.24;100.00;99163.09;4981616;28;100718;-61
2021/01/28 10:49:49;;;;;;;12.47;6.83;;;4.40;99.90;;;2.30;100.00;99162.56;4982153;28;100000;-59
2021/01/28 10:52:15;;;;;;;13.17;7.90;;;4.40;99.90;;;2.36;100.00;99152.31;4982192;28;100319;-61
2021/01/28 10:54:42;;;;;;;13.80;8.20;;;4.50;99.90;;;2.31;100.00;99143.13;4981940;28;101125;-61
2021/01/28 10:57:11;;;;;;;16.33;8.93;;;4.50;99.90;;;2.35;100.00;99148.00;4982436;28;101349;-62
2021/01/28 10:59:38;;;;;;;10.27;7.93;;;4.50;99.90;;;2.34;100.00;99125.22;4983071;28;99975;-60
2021/01/28 11:02:04;;;;;;;8.60;6.73;;;4.30;99.90;;;2.33;100.00;99141.19;4982442;28;100364;-60